sensor_id;sensor_type;location;lat;lon;timestamp;P1;durP1;ratioP1;P2;durP2;ratioP2
2041;SDS011;1026;51.460;7.252;2023-02-21T00:01:45;16.43;;;11.57;;
2041;SDS011;1026;51.460;7.252;2023-02-21T00:04:26;12.33;;;10.23;;
2041;SDS011;1026;51.460;7.252;2023-02-21T00:07:06;12.77;;;9.30;;
2041;SDS011;1026;51.460;7.252;2023-02-21T00:09:47;19.63;;;11.30;;
2041;SDS011;1026;51.460;7.252;2023-02-21T00:12:36;13.13;;;10.20;;
2041;SDS011;1026;51.460;7.252;2023-02-21T00:15:16;20.57;;;13.80;;
2041;SDS011;1026;51.460;7.252;2023-02-21T00:17:57;18.77;;;13.50;;
2041;SDS011;1026;51.460;7.252;2023-02-21T00:20:38;21.70;;;13.50;;
2041;SDS011;1026;51.460;7.252;2023-02-21T00:23:23;17.03;;;12.80;;
2041;SDS011;1026;51.460;7.252;2023-02-21T00:26:16;14.27;;;10.17;;
2041;SDS011;1026;51.460;7.252;2023-02-21T00:28:58;11.93;;;9.57;;
2041;SDS011;1026;51.460;7.252;2023-02-21T00:31:54;16.40;;;11.13;;
2041;SDS011;1026;51.460;7.252;2023-02-21T00:34:35;16.47;;;11.47;;
2041;SDS011;1026;51.460;7.252;2023-02-21T00:37:16;21.50;;;13.10;;
2041;SDS011;1026;51.460;7.252;2023-02-21T00:39:57;16.83;;;12.07;;
2041;SDS011;1026;51.460;7.252;2023-02-21T00:42:38;18.23;;;12.73;;
2041;SDS011;1026;51.460;7.252;2023-02-21T00:45:19;18.57;;;12.67;;
2041;SDS011;1026;51.460;7.252;2023-02-21T00:48:00;22.57;;;13.23;;
2041;SDS011;1026;51.460;7.252;2023-02-21T00:50:41;15.30;;;11.57;;
2041;SDS011;1026;51.460;7.252;2023-02-21T00:53:23;21.40;;;12.10;;
2041;SDS011;1026;51.460;7.252;2023-02-21T00:56:04;22.40;;;13.63;;
2041;SDS011;1026;51.460;7.252;2023-02-21T00:58:45;18.30;;;11.83;;
2041;SDS011;1026;51.460;7.252;2023-02-21T01:01:26;13.87;;;11.10;;
2041;SDS011;1026;51.460;7.252;2023-02-21T01:04:07;16.87;;;12.10;;
2041;SDS011;1026;51.460;7.252;2023-02-21T01:06:49;15.40;;;11.97;;
2041;SDS011;1026;51.460;7.252;2023-02-21T01:09:30;19.83;;;12.03;;
2041;SDS011;1026;51.460;7.252;2023-02-21T01:12:11;21.33;;;14.33;;
2041;SDS011;1026;51.460;7.252;2023-02-21T01:14:52;15.00;;;10.70;;
2041;SDS011;1026;51.460;7.252;2023-02-21T01:17:33;17.93;;;10.50;;
2041;SDS011;1026;51.460;7.252;2023-02-21T01:20:14;23.60;;;13.97;;
2041;SDS011;1026;51.460;7.252;2023-02-21T01:22:55;18.10;;;12.67;;
2041;SDS011;1026;51.460;7.252;2023-02-21T01:25:36;19.77;;;13.03;;
2041;SDS011;1026;51.460;7.252;2023-02-21T01:28:17;24.03;;;13.10;;
2041;SDS011;1026;51.460;7.252;2023-02-21T01:30:58;17.90;;;11.60;;
2041;SDS011;1026;51.460;7.252;2023-02-21T01:33:39;16.30;;;12.00;;
2041;SDS011;1026;51.460;7.252;2023-02-21T01:36:21;27.70;;;17.23;;
2041;SDS011;1026;51.460;7.252;2023-02-21T01:39:02;18.80;;;12.83;;
2041;SDS011;1026;51.460;7.252;2023-02-21T01:41:43;26.80;;;16.77;;
2041;SDS011;1026;51.460;7.252;2023-02-21T01:44:33;28.80;;;15.53;;
2041;SDS011;1026;51.460;7.252;2023-02-21T01:47:17;25.13;;;15.23;;
2041;SDS011;1026;51.460;7.252;2023-02-21T01:50:00;23.80;;;15.87;;
2041;SDS011;1026;51.460;7.252;2023-02-21T01:52:44;27.57;;;16.27;;
2041;SDS011;1026;51.460;7.252;2023-02-21T01:55:28;15.40;;;11.60;;
2041;SDS011;1026;51.460;7.252;2023-02-21T01:58:09;24.43;;;16.27;;
2041;SDS011;1026;51.460;7.252;2023-02-21T02:00:50;17.13;;;10.90;;
2041;SDS011;1026;51.460;7.252;2023-02-21T02:03:31;26.93;;;16.43;;
2041;SDS011;1026;51.460;7.252;2023-02-21T02:06:14;22.20;;;14.60;;
2041;SDS011;1026;51.460;7.252;2023-02-21T02:08:56;21.00;;;13.37;;
2041;SDS011;1026;51.460;7.252;2023-02-21T02:14:44;23.07;;;14.97;;
2041;SDS011;1026;51.460;7.252;2023-02-21T02:19:57;31.70;;;19.10;;
2041;SDS011;1026;51.460;7.252;2023-02-21T02:22:50;26.67;;;14.53;;
2041;SDS011;1026;51.460;7.252;2023-02-21T02:36:33;29.80;;;16.60;;
2041;SDS011;1026;51.460;7.252;2023-02-21T02:39:13;24.97;;;16.43;;
2041;SDS011;1026;51.460;7.252;2023-02-21T02:44:35;20.33;;;14.00;;
2041;SDS011;1026;51.460;7.252;2023-02-21T02:47:06;21.17;;;13.37;;
2041;SDS011;1026;51.460;7.252;2023-02-21T02:49:35;19.67;;;11.77;;
2041;SDS011;1026;51.460;7.252;2023-02-21T02:52:05;31.07;;;20.13;;
2041;SDS011;1026;51.460;7.252;2023-02-21T02:54:33;20.60;;;14.00;;
2041;SDS011;1026;51.460;7.252;2023-02-21T02:56:59;23.03;;;15.83;;
2041;SDS011;1026;51.460;7.252;2023-02-21T02:59:27;23.30;;;15.83;;
2041;SDS011;1026;51.460;7.252;2023-02-21T03:02:05;16.73;;;11.97;;
2041;SDS011;1026;51.460;7.252;2023-02-21T03:10:11;27.03;;;15.60;;
2041;SDS011;1026;51.460;7.252;2023-02-21T03:13:00;22.93;;;13.97;;
2041;SDS011;1026;51.460;7.252;2023-02-21T03:15:32;29.77;;;16.53;;
2041;SDS011;1026;51.460;7.252;2023-02-21T03:21:02;25.00;;;16.63;;
2041;SDS011;1026;51.460;7.252;2023-02-21T03:23:31;25.90;;;15.60;;
2041;SDS011;1026;51.460;7.252;2023-02-21T03:26:00;25.53;;;16.43;;
2041;SDS011;1026;51.460;7.252;2023-02-21T03:28:30;25.70;;;16.73;;
2041;SDS011;1026;51.460;7.252;2023-02-21T03:30:57;22.63;;;15.20;;
2041;SDS011;1026;51.460;7.252;2023-02-21T03:33:29;24.67;;;17.63;;
2041;SDS011;1026;51.460;7.252;2023-02-21T03:35:55;26.53;;;15.73;;
2041;SDS011;1026;51.460;7.252;2023-02-21T03:38:26;36.07;;;18.97;;
2041;SDS011;1026;51.460;7.252;2023-02-21T03:40:53;24.70;;;13.90;;
2041;SDS011;1026;51.460;7.252;2023-02-21T03:43:19;17.20;;;12.67;;
2041;SDS011;1026;51.460;7.252;2023-02-21T03:45:45;18.60;;;14.07;;
2041;SDS011;1026;51.460;7.252;2023-02-21T03:48:10;20.77;;;13.27;;
2041;SDS011;1026;51.460;7.252;2023-02-21T03:50:36;25.03;;;18.73;;
2041;SDS011;1026;51.460;7.252;2023-02-21T03:53:02;26.03;;;15.30;;
2041;SDS011;1026;51.460;7.252;2023-02-21T03:55:28;27.37;;;18.00;;
2041;SDS011;1026;51.460;7.252;2023-02-21T03:57:54;18.20;;;12.00;;
2041;SDS011;1026;51.460;7.252;2023-02-21T04:00:20;21.20;;;14.20;;
2041;SDS011;1026;51.460;7.252;2023-02-21T04:02:46;22.73;;;15.67;;
2041;SDS011;1026;51.460;7.252;2023-02-21T04:05:11;23.13;;;15.20;;
2041;SDS011;1026;51.460;7.252;2023-02-21T04:07:37;19.43;;;12.57;;
2041;SDS011;1026;51.460;7.252;2023-02-21T04:10:03;22.33;;;15.40;;
2041;SDS011;1026;51.460;7.252;2023-02-21T04:12:29;25.90;;;17.00;;
2041;SDS011;1026;51.460;7.252;2023-02-21T04:14:54;20.33;;;12.70;;
2041;SDS011;1026;51.460;7.252;2023-02-21T04:17:22;20.83;;;13.67;;
2041;SDS011;1026;51.460;7.252;2023-02-21T04:19:48;19.00;;;14.20;;
2041;SDS011;1026;51.460;7.252;2023-02-21T04:22:14;27.03;;;16.60;;
2041;SDS011;1026;51.460;7.252;2023-02-21T04:24:39;21.47;;;16.40;;
2041;SDS011;1026;51.460;7.252;2023-02-21T04:27:06;21.57;;;13.67;;
2041;SDS011;1026;51.460;7.252;2023-02-21T04:29:32;19.40;;;14.07;;
2041;SDS011;1026;51.460;7.252;2023-02-21T04:31:58;25.77;;;17.90;;
2041;SDS011;1026;51.460;7.252;2023-02-21T04:34:24;22.73;;;15.27;;
2041;SDS011;1026;51.460;7.252;2023-02-21T04:36:49;18.43;;;12.63;;
2041;SDS011;1026;51.460;7.252;2023-02-21T04:39:15;30.40;;;16.63;;
2041;SDS011;1026;51.460;7.252;2023-02-21T04:41:41;26.93;;;16.77;;
2041;SDS011;1026;51.460;7.252;2023-02-21T04:44:06;20.70;;;14.30;;
2041;SDS011;1026;51.460;7.252;2023-02-21T04:46:32;28.00;;;18.07;;
2041;SDS011;1026;51.460;7.252;2023-02-21T04:48:58;21.70;;;15.13;;
2041;SDS011;1026;51.460;7.252;2023-02-21T04:51:24;24.07;;;16.20;;
2041;SDS011;1026;51.460;7.252;2023-02-21T04:53:51;29.23;;;17.93;;
2041;SDS011;1026;51.460;7.252;2023-02-21T04:56:18;25.83;;;15.87;;
2041;SDS011;1026;51.460;7.252;2023-02-21T04:58:45;27.07;;;16.70;;
2041;SDS011;1026;51.460;7.252;2023-02-21T05:01:12;19.07;;;12.00;;
2041;SDS011;1026;51.460;7.252;2023-02-21T05:03:39;16.93;;;12.10;;
2041;SDS011;1026;51.460;7.252;2023-02-21T05:06:05;21.80;;;14.17;;
2041;SDS011;1026;51.460;7.252;2023-02-21T05:08:30;19.47;;;12.83;;
2041;SDS011;1026;51.460;7.252;2023-02-21T05:10:56;25.73;;;17.10;;
2041;SDS011;1026;51.460;7.252;2023-02-21T05:13:22;21.73;;;14.27;;
2041;SDS011;1026;51.460;7.252;2023-02-21T05:15:48;28.00;;;16.10;;
2041;SDS011;1026;51.460;7.252;2023-02-21T05:18:14;26.80;;;16.93;;
2041;SDS011;1026;51.460;7.252;2023-02-21T05:20:48;19.37;;;13.23;;
2041;SDS011;1026;51.460;7.252;2023-02-21T05:23:14;33.27;;;17.37;;
2041;SDS011;1026;51.460;7.252;2023-02-21T05:25:41;19.60;;;12.90;;
2041;SDS011;1026;51.460;7.252;2023-02-21T05:28:07;23.00;;;14.20;;
2041;SDS011;1026;51.460;7.252;2023-02-21T05:30:33;31.97;;;18.97;;
2041;SDS011;1026;51.460;7.252;2023-02-21T05:32:58;18.87;;;11.93;;
2041;SDS011;1026;51.460;7.252;2023-02-21T05:35:24;33.60;;;18.40;;
2041;SDS011;1026;51.460;7.252;2023-02-21T05:37:50;24.30;;;15.00;;
2041;SDS011;1026;51.460;7.252;2023-02-21T05:40:16;27.40;;;18.50;;
2041;SDS011;1026;51.460;7.252;2023-02-21T05:42:43;26.30;;;16.97;;
2041;SDS011;1026;51.460;7.252;2023-02-21T05:45:09;28.50;;;18.00;;
2041;SDS011;1026;51.460;7.252;2023-02-21T05:47:35;18.60;;;12.80;;
2041;SDS011;1026;51.460;7.252;2023-02-21T05:50:01;22.27;;;14.47;;
2041;SDS011;1026;51.460;7.252;2023-02-21T05:52:28;19.27;;;12.10;;
2041;SDS011;1026;51.460;7.252;2023-02-21T05:54:54;20.40;;;13.10;;
2041;SDS011;1026;51.460;7.252;2023-02-21T05:57:19;24.93;;;15.30;;
2041;SDS011;1026;51.460;7.252;2023-02-21T05:59:45;27.60;;;18.20;;
2041;SDS011;1026;51.460;7.252;2023-02-21T06:02:13;22.50;;;14.40;;
2041;SDS011;1026;51.460;7.252;2023-02-21T06:04:39;19.37;;;12.17;;
2041;SDS011;1026;51.460;7.252;2023-02-21T06:07:05;19.10;;;13.00;;
2041;SDS011;1026;51.460;7.252;2023-02-21T06:09:30;19.67;;;14.90;;
2041;SDS011;1026;51.460;7.252;2023-02-21T06:11:56;24.33;;;14.17;;
2041;SDS011;1026;51.460;7.252;2023-02-21T06:14:22;20.70;;;14.30;;
2041;SDS011;1026;51.460;7.252;2023-02-21T06:16:48;27.80;;;16.50;;
2041;SDS011;1026;51.460;7.252;2023-02-21T06:19:14;27.63;;;15.37;;
2041;SDS011;1026;51.460;7.252;2023-02-21T06:21:41;25.73;;;17.20;;
2041;SDS011;1026;51.460;7.252;2023-02-21T06:24:14;30.03;;;17.43;;
2041;SDS011;1026;51.460;7.252;2023-02-21T06:26:39;36.83;;;20.13;;
2041;SDS011;1026;51.460;7.252;2023-02-21T06:29:06;27.50;;;18.23;;
2041;SDS011;1026;51.460;7.252;2023-02-21T06:31:32;39.93;;;21.07;;
2041;SDS011;1026;51.460;7.252;2023-02-21T06:33:58;34.17;;;18.57;;
2041;SDS011;1026;51.460;7.252;2023-02-21T06:36:25;42.53;;;22.20;;
2041;SDS011;1026;51.460;7.252;2023-02-21T06:38:53;33.93;;;19.17;;
2041;SDS011;1026;51.460;7.252;2023-02-21T06:41:22;42.33;;;18.83;;
2041;SDS011;1026;51.460;7.252;2023-02-21T06:43:51;18.83;;;12.80;;
2041;SDS011;1026;51.460;7.252;2023-02-21T06:46:19;28.50;;;17.77;;
2041;SDS011;1026;51.460;7.252;2023-02-21T06:48:47;32.87;;;17.93;;
2041;SDS011;1026;51.460;7.252;2023-02-21T06:51:13;38.30;;;19.07;;
2041;SDS011;1026;51.460;7.252;2023-02-21T06:53:41;21.80;;;14.63;;
2041;SDS011;1026;51.460;7.252;2023-02-21T06:56:09;37.40;;;22.53;;
2041;SDS011;1026;51.460;7.252;2023-02-21T06:58:35;24.37;;;17.40;;
2041;SDS011;1026;51.460;7.252;2023-02-21T07:01:00;27.57;;;17.30;;
2041;SDS011;1026;51.460;7.252;2023-02-21T07:03:26;37.13;;;20.43;;
2041;SDS011;1026;51.460;7.252;2023-02-21T07:05:52;31.37;;;18.00;;
2041;SDS011;1026;51.460;7.252;2023-02-21T07:08:18;23.50;;;15.20;;
2041;SDS011;1026;51.460;7.252;2023-02-21T07:10:44;20.53;;;13.00;;
2041;SDS011;1026;51.460;7.252;2023-02-21T07:13:10;41.57;;;23.57;;
2041;SDS011;1026;51.460;7.252;2023-02-21T07:15:36;30.40;;;19.10;;
2041;SDS011;1026;51.460;7.252;2023-02-21T07:18:01;31.67;;;19.30;;
2041;SDS011;1026;51.460;7.252;2023-02-21T07:20:27;26.90;;;14.87;;
2041;SDS011;1026;51.460;7.252;2023-02-21T07:22:53;22.53;;;13.03;;
2041;SDS011;1026;51.460;7.252;2023-02-21T07:25:20;30.70;;;17.00;;
2041;SDS011;1026;51.460;7.252;2023-02-21T07:27:47;29.67;;;15.80;;
2041;SDS011;1026;51.460;7.252;2023-02-21T07:30:14;30.70;;;18.77;;
2041;SDS011;1026;51.460;7.252;2023-02-21T07:32:41;46.30;;;24.67;;
2041;SDS011;1026;51.460;7.252;2023-02-21T07:35:07;19.30;;;12.97;;
2041;SDS011;1026;51.460;7.252;2023-02-21T07:37:33;21.27;;;14.13;;
2041;SDS011;1026;51.460;7.252;2023-02-21T07:40:05;30.73;;;16.80;;
2041;SDS011;1026;51.460;7.252;2023-02-21T07:42:32;40.53;;;21.80;;
2041;SDS011;1026;51.460;7.252;2023-02-21T07:44:58;22.10;;;14.20;;
2041;SDS011;1026;51.460;7.252;2023-02-21T07:47:24;23.70;;;14.53;;
2041;SDS011;1026;51.460;7.252;2023-02-21T07:49:51;24.90;;;13.83;;
2041;SDS011;1026;51.460;7.252;2023-02-21T07:52:18;24.13;;;15.97;;
2041;SDS011;1026;51.460;7.252;2023-02-21T07:54:45;28.10;;;15.97;;
2041;SDS011;1026;51.460;7.252;2023-02-21T07:57:11;26.63;;;19.07;;
2041;SDS011;1026;51.460;7.252;2023-02-21T07:59:36;22.83;;;15.97;;
2041;SDS011;1026;51.460;7.252;2023-02-21T08:02:03;38.90;;;20.63;;
2041;SDS011;1026;51.460;7.252;2023-02-21T08:04:36;32.37;;;15.70;;
2041;SDS011;1026;51.460;7.252;2023-02-21T08:07:02;22.63;;;13.57;;
2041;SDS011;1026;51.460;7.252;2023-02-21T08:09:28;37.67;;;22.90;;
2041;SDS011;1026;51.460;7.252;2023-02-21T08:11:54;42.03;;;23.63;;
2041;SDS011;1026;51.460;7.252;2023-02-21T08:14:20;26.67;;;14.63;;
2041;SDS011;1026;51.460;7.252;2023-02-21T08:16:46;47.73;;;24.63;;
2041;SDS011;1026;51.460;7.252;2023-02-21T08:19:12;35.80;;;20.03;;
2041;SDS011;1026;51.460;7.252;2023-02-21T08:21:38;29.73;;;19.10;;
2041;SDS011;1026;51.460;7.252;2023-02-21T08:24:08;30.10;;;18.80;;
2041;SDS011;1026;51.460;7.252;2023-02-21T08:26:35;40.40;;;19.17;;
2041;SDS011;1026;51.460;7.252;2023-02-21T08:29:00;32.87;;;17.33;;
2041;SDS011;1026;51.460;7.252;2023-02-21T08:31:27;30.47;;;18.07;;
2041;SDS011;1026;51.460;7.252;2023-02-21T08:33:53;32.83;;;17.10;;
2041;SDS011;1026;51.460;7.252;2023-02-21T08:36:19;25.20;;;15.40;;
2041;SDS011;1026;51.460;7.252;2023-02-21T08:38:45;31.87;;;17.00;;
2041;SDS011;1026;51.460;7.252;2023-02-21T08:41:11;24.90;;;16.27;;
2041;SDS011;1026;51.460;7.252;2023-02-21T08:43:36;26.50;;;17.00;;
2041;SDS011;1026;51.460;7.252;2023-02-21T08:46:02;35.67;;;20.93;;
2041;SDS011;1026;51.460;7.252;2023-02-21T08:48:28;27.40;;;16.60;;
2041;SDS011;1026;51.460;7.252;2023-02-21T08:50:54;24.63;;;13.80;;
2041;SDS011;1026;51.460;7.252;2023-02-21T08:53:20;31.43;;;18.27;;
2041;SDS011;1026;51.460;7.252;2023-02-21T08:55:45;22.70;;;13.20;;
2041;SDS011;1026;51.460;7.252;2023-02-21T08:58:11;26.73;;;16.43;;
2041;SDS011;1026;51.460;7.252;2023-02-21T09:00:37;23.60;;;13.93;;
2041;SDS011;1026;51.460;7.252;2023-02-21T09:03:03;20.67;;;13.37;;
2041;SDS011;1026;51.460;7.252;2023-02-21T09:05:30;30.07;;;16.80;;
2041;SDS011;1026;51.460;7.252;2023-02-21T09:07:57;28.20;;;13.80;;
2041;SDS011;1026;51.460;7.252;2023-02-21T09:10:26;35.83;;;17.73;;
2041;SDS011;1026;51.460;7.252;2023-02-21T09:12:53;28.30;;;16.47;;
2041;SDS011;1026;51.460;7.252;2023-02-21T09:15:19;31.50;;;17.80;;
2041;SDS011;1026;51.460;7.252;2023-02-21T09:17:45;24.00;;;13.80;;
2041;SDS011;1026;51.460;7.252;2023-02-21T09:20:13;39.80;;;18.57;;
2041;SDS011;1026;51.460;7.252;2023-02-21T09:22:42;27.70;;;15.50;;
2041;SDS011;1026;51.460;7.252;2023-02-21T09:25:09;32.60;;;17.77;;
2041;SDS011;1026;51.460;7.252;2023-02-21T09:27:38;24.93;;;14.90;;
2041;SDS011;1026;51.460;7.252;2023-02-21T09:32:32;28.43;;;15.53;;
2041;SDS011;1026;51.460;7.252;2023-02-21T09:34:59;26.20;;;15.30;;
2041;SDS011;1026;51.460;7.252;2023-02-21T09:37:25;26.17;;;14.97;;
2041;SDS011;1026;51.460;7.252;2023-02-21T09:39:51;22.63;;;14.90;;
2041;SDS011;1026;51.460;7.252;2023-02-21T09:42:17;22.80;;;13.00;;
2041;SDS011;1026;51.460;7.252;2023-02-21T09:44:46;26.23;;;14.63;;
2041;SDS011;1026;51.460;7.252;2023-02-21T09:47:14;17.37;;;11.23;;
2041;SDS011;1026;51.460;7.252;2023-02-21T09:49:46;19.00;;;12.40;;
2041;SDS011;1026;51.460;7.252;2023-02-21T09:52:18;25.03;;;14.63;;
2041;SDS011;1026;51.460;7.252;2023-02-21T09:54:53;19.97;;;13.20;;
2041;SDS011;1026;51.460;7.252;2023-02-21T09:57:22;27.70;;;14.80;;
2041;SDS011;1026;51.460;7.252;2023-02-21T09:59:48;25.42;;;15.93;;
2041;SDS011;1026;51.460;7.252;2023-02-21T10:07:53;22.40;;;13.60;;
2041;SDS011;1026;51.460;7.252;2023-02-21T10:12:58;21.80;;;12.77;;
2041;SDS011;1026;51.460;7.252;2023-02-21T10:18:21;19.30;;;13.60;;
2041;SDS011;1026;51.460;7.252;2023-02-21T10:23:15;21.07;;;12.20;;
2041;SDS011;1026;51.460;7.252;2023-02-21T10:25:44;21.00;;;13.10;;
2041;SDS011;1026;51.460;7.252;2023-02-21T10:28:16;20.20;;;13.43;;
2041;SDS011;1026;51.460;7.252;2023-02-21T10:30:44;25.30;;;13.80;;
2041;SDS011;1026;51.460;7.252;2023-02-21T10:33:12;25.70;;;14.10;;
2041;SDS011;1026;51.460;7.252;2023-02-21T10:35:38;22.20;;;11.87;;
2041;SDS011;1026;51.460;7.252;2023-02-21T10:38:06;19.20;;;12.90;;
2041;SDS011;1026;51.460;7.252;2023-02-21T10:40:40;19.27;;;12.07;;
2041;SDS011;1026;51.460;7.252;2023-02-21T10:43:25;21.20;;;11.67;;
2041;SDS011;1026;51.460;7.252;2023-02-21T10:48:44;22.37;;;12.13;;
2041;SDS011;1026;51.460;7.252;2023-02-21T10:51:15;18.10;;;10.73;;
2041;SDS011;1026;51.460;7.252;2023-02-21T10:53:52;19.90;;;11.70;;
2041;SDS011;1026;51.460;7.252;2023-02-21T10:56:20;17.67;;;10.40;;
2041;SDS011;1026;51.460;7.252;2023-02-21T10:58:50;15.10;;;10.23;;
2041;SDS011;1026;51.460;7.252;2023-02-21T11:03:51;20.23;;;10.97;;
2041;SDS011;1026;51.460;7.252;2023-02-21T11:12:01;18.70;;;10.60;;
2041;SDS011;1026;51.460;7.252;2023-02-21T11:14:28;15.90;;;10.13;;
2041;SDS011;1026;51.460;7.252;2023-02-21T11:19:41;16.20;;;10.30;;
2041;SDS011;1026;51.460;7.252;2023-02-21T11:22:23;15.63;;;10.70;;
2041;SDS011;1026;51.460;7.252;2023-02-21T11:27:58;17.87;;;9.80;;
2041;SDS011;1026;51.460;7.252;2023-02-21T11:33:35;15.10;;;9.40;;
2041;SDS011;1026;51.460;7.252;2023-02-21T11:36:07;16.13;;;11.00;;
2041;SDS011;1026;51.460;7.252;2023-02-21T11:38:39;17.10;;;10.90;;
2041;SDS011;1026;51.460;7.252;2023-02-21T11:43:54;16.93;;;10.10;;
2041;SDS011;1026;51.460;7.252;2023-02-21T11:51:59;14.93;;;8.90;;
2041;SDS011;1026;51.460;7.252;2023-02-21T11:54:29;13.10;;;8.00;;
2041;SDS011;1026;51.460;7.252;2023-02-21T11:57:01;14.80;;;9.80;;
2041;SDS011;1026;51.460;7.252;2023-02-21T12:07:41;13.53;;;9.17;;
2041;SDS011;1026;51.460;7.252;2023-02-21T12:10:30;11.83;;;8.30;;
2041;SDS011;1026;51.460;7.252;2023-02-21T12:13:05;15.57;;;8.30;;
2041;SDS011;1026;51.460;7.252;2023-02-21T12:15:53;16.40;;;10.27;;
2041;SDS011;1026;51.460;7.252;2023-02-21T12:21:24;20.83;;;12.40;;
2041;SDS011;1026;51.460;7.252;2023-02-21T12:26:55;19.37;;;12.70;;
2041;SDS011;1026;51.460;7.252;2023-02-21T12:29:57;15.03;;;9.60;;
2041;SDS011;1026;51.460;7.252;2023-02-21T12:44:35;11.80;;;7.57;;
2041;SDS011;1026;51.460;7.252;2023-02-21T12:47:27;19.57;;;12.87;;
2041;SDS011;1026;51.460;7.252;2023-02-21T12:50:08;13.30;;;8.80;;
2041;SDS011;1026;51.460;7.252;2023-02-21T12:52:42;21.83;;;13.70;;
2041;SDS011;1026;51.460;7.252;2023-02-21T12:55:24;14.33;;;9.23;;
2041;SDS011;1026;51.460;7.252;2023-02-21T13:00:20;23.70;;;14.73;;
2041;SDS011;1026;51.460;7.252;2023-02-21T13:02:52;21.17;;;15.00;;
2041;SDS011;1026;51.460;7.252;2023-02-21T13:05:43;24.70;;;14.63;;
2041;SDS011;1026;51.460;7.252;2023-02-21T13:08:14;19.27;;;11.70;;
2041;SDS011;1026;51.460;7.252;2023-02-21T13:10:51;13.57;;;9.30;;
2041;SDS011;1026;51.460;7.252;2023-02-21T13:13:30;14.87;;;9.47;;
2041;SDS011;1026;51.460;7.252;2023-02-21T13:15:57;23.87;;;14.87;;
2041;SDS011;1026;51.460;7.252;2023-02-21T13:18:30;10.70;;;8.50;;
2041;SDS011;1026;51.460;7.252;2023-02-21T13:29:50;11.50;;;8.53;;
2041;SDS011;1026;51.460;7.252;2023-02-21T13:32:17;14.17;;;8.77;;
2041;SDS011;1026;51.460;7.252;2023-02-21T13:34:46;23.30;;;16.33;;
2041;SDS011;1026;51.460;7.252;2023-02-21T13:37:19;15.20;;;8.97;;
2041;SDS011;1026;51.460;7.252;2023-02-21T13:39:50;14.23;;;8.83;;
2041;SDS011;1026;51.460;7.252;2023-02-21T13:42:19;17.67;;;10.53;;
2041;SDS011;1026;51.460;7.252;2023-02-21T13:44:48;22.50;;;13.77;;
2041;SDS011;1026;51.460;7.252;2023-02-21T13:47:19;14.97;;;10.73;;
2041;SDS011;1026;51.460;7.252;2023-02-21T13:49:48;28.23;;;15.80;;
2041;SDS011;1026;51.460;7.252;2023-02-21T13:57:40;11.97;;;8.50;;
2041;SDS011;1026;51.460;7.252;2023-02-21T14:02:58;13.60;;;8.70;;
2041;SDS011;1026;51.460;7.252;2023-02-21T14:06:14;13.20;;;7.87;;
2041;SDS011;1026;51.460;7.252;2023-02-21T14:08:17;11.90;;;8.40;;
2041;SDS011;1026;51.460;7.252;2023-02-21T14:10:50;13.70;;;9.00;;
2041;SDS011;1026;51.460;7.252;2023-02-21T14:16:32;18.13;;;8.63;;
2041;SDS011;1026;51.460;7.252;2023-02-21T14:18:53;13.83;;;8.80;;
2041;SDS011;1026;51.460;7.252;2023-02-21T14:24:00;14.43;;;9.47;;
2041;SDS011;1026;51.460;7.252;2023-02-21T14:26:41;16.40;;;8.87;;
2041;SDS011;1026;51.460;7.252;2023-02-21T14:29:29;12.13;;;9.00;;
2041;SDS011;1026;51.460;7.252;2023-02-21T14:32:15;25.07;;;14.57;;
2041;SDS011;1026;51.460;7.252;2023-02-21T14:37:15;29.43;;;16.83;;
2041;SDS011;1026;51.460;7.252;2023-02-21T14:39:58;26.00;;;16.57;;
2041;SDS011;1026;51.460;7.252;2023-02-21T14:48:44;20.93;;;13.30;;
2041;SDS011;1026;51.460;7.252;2023-02-21T14:54:11;13.17;;;9.13;;
2041;SDS011;1026;51.460;7.252;2023-02-21T15:02:39;15.03;;;9.77;;
2041;SDS011;1026;51.460;7.252;2023-02-21T15:05:20;16.40;;;9.50;;
2041;SDS011;1026;51.460;7.252;2023-02-21T15:07:54;13.53;;;9.47;;
2041;SDS011;1026;51.460;7.252;2023-02-21T15:10:40;14.33;;;8.53;;
2041;SDS011;1026;51.460;7.252;2023-02-21T15:15:56;20.40;;;14.10;;
2041;SDS011;1026;51.460;7.252;2023-02-21T15:18:27;14.63;;;8.73;;
2041;SDS011;1026;51.460;7.252;2023-02-21T15:21:17;26.13;;;15.70;;
2041;SDS011;1026;51.460;7.252;2023-02-21T15:23:43;12.77;;;8.30;;
2041;SDS011;1026;51.460;7.252;2023-02-21T15:26:19;14.23;;;9.50;;
2041;SDS011;1026;51.460;7.252;2023-02-21T15:28:46;12.90;;;8.60;;
2041;SDS011;1026;51.460;7.252;2023-02-21T15:31:27;12.10;;;8.23;;
2041;SDS011;1026;51.460;7.252;2023-02-21T15:33:58;13.57;;;8.47;;
2041;SDS011;1026;51.460;7.252;2023-02-21T15:36:24;14.00;;;9.17;;
2041;SDS011;1026;51.460;7.252;2023-02-21T15:38:52;13.77;;;8.73;;
2041;SDS011;1026;51.460;7.252;2023-02-21T15:41:31;24.10;;;12.13;;
2041;SDS011;1026;51.460;7.252;2023-02-21T15:44:02;13.00;;;9.73;;
2041;SDS011;1026;51.460;7.252;2023-02-21T15:46:40;15.47;;;9.97;;
2041;SDS011;1026;51.460;7.252;2023-02-21T15:49:14;15.87;;;10.00;;
2041;SDS011;1026;51.460;7.252;2023-02-21T15:51:44;16.20;;;8.57;;
2041;SDS011;1026;51.460;7.252;2023-02-21T15:57:02;16.90;;;10.10;;
2041;SDS011;1026;51.460;7.252;2023-02-21T15:59:44;16.70;;;10.27;;
2041;SDS011;1026;51.460;7.252;2023-02-21T16:04:36;14.43;;;10.60;;
2041;SDS011;1026;51.460;7.252;2023-02-21T16:07:05;14.00;;;9.00;;
2041;SDS011;1026;51.460;7.252;2023-02-21T16:09:38;14.00;;;9.97;;
2041;SDS011;1026;51.460;7.252;2023-02-21T16:14:37;14.47;;;9.23;;
2041;SDS011;1026;51.460;7.252;2023-02-21T16:17:21;15.27;;;10.10;;
2041;SDS011;1026;51.460;7.252;2023-02-21T16:19:58;16.53;;;9.67;;
2041;SDS011;1026;51.460;7.252;2023-02-21T16:22:30;15.80;;;9.60;;
2041;SDS011;1026;51.460;7.252;2023-02-21T16:27:41;13.73;;;9.43;;
2041;SDS011;1026;51.460;7.252;2023-02-21T16:30:11;17.20;;;9.60;;
2041;SDS011;1026;51.460;7.252;2023-02-21T16:32:41;14.83;;;9.77;;
2041;SDS011;1026;51.460;7.252;2023-02-21T16:35:13;14.23;;;9.00;;
2041;SDS011;1026;51.460;7.252;2023-02-21T16:37:44;11.30;;;8.37;;
2041;SDS011;1026;51.460;7.252;2023-02-21T16:40:11;15.83;;;10.40;;
2041;SDS011;1026;51.460;7.252;2023-02-21T16:42:39;13.67;;;9.07;;
2041;SDS011;1026;51.460;7.252;2023-02-21T16:45:04;14.47;;;9.63;;
2041;SDS011;1026;51.460;7.252;2023-02-21T16:47:30;20.87;;;11.70;;
2041;SDS011;1026;51.460;7.252;2023-02-21T16:49:56;20.90;;;11.70;;
2041;SDS011;1026;51.460;7.252;2023-02-21T16:52:22;15.40;;;10.20;;
2041;SDS011;1026;51.460;7.252;2023-02-21T16:54:47;18.43;;;10.17;;
2041;SDS011;1026;51.460;7.252;2023-02-21T16:57:13;20.93;;;12.30;;
2041;SDS011;1026;51.460;7.252;2023-02-21T16:59:39;14.27;;;10.13;;
2041;SDS011;1026;51.460;7.252;2023-02-21T17:02:04;13.67;;;9.70;;
2041;SDS011;1026;51.460;7.252;2023-02-21T17:04:31;17.03;;;10.53;;
2041;SDS011;1026;51.460;7.252;2023-02-21T17:06:59;16.70;;;9.47;;
2041;SDS011;1026;51.460;7.252;2023-02-21T17:09:27;15.00;;;10.77;;
2041;SDS011;1026;51.460;7.252;2023-02-21T17:11:55;17.23;;;10.10;;
2041;SDS011;1026;51.460;7.252;2023-02-21T17:14:20;12.93;;;8.87;;
2041;SDS011;1026;51.460;7.252;2023-02-21T17:16:46;16.27;;;9.93;;
2041;SDS011;1026;51.460;7.252;2023-02-21T17:19:13;14.47;;;9.33;;
2041;SDS011;1026;51.460;7.252;2023-02-21T17:21:40;13.97;;;8.37;;
2041;SDS011;1026;51.460;7.252;2023-02-21T17:27:32;19.73;;;9.43;;
2041;SDS011;1026;51.460;7.252;2023-02-21T17:29:58;13.30;;;9.53;;
2041;SDS011;1026;51.460;7.252;2023-02-21T17:32:24;18.73;;;11.50;;
2041;SDS011;1026;51.460;7.252;2023-02-21T17:34:51;14.93;;;9.20;;
2041;SDS011;1026;51.460;7.252;2023-02-21T17:37:16;14.10;;;8.90;;
2041;SDS011;1026;51.460;7.252;2023-02-21T17:39:42;14.03;;;9.63;;
2041;SDS011;1026;51.460;7.252;2023-02-21T17:42:08;17.07;;;9.33;;
2041;SDS011;1026;51.460;7.252;2023-02-21T17:44:34;15.57;;;10.83;;
2041;SDS011;1026;51.460;7.252;2023-02-21T17:47:01;14.13;;;8.70;;
2041;SDS011;1026;51.460;7.252;2023-02-21T17:49:31;12.17;;;9.17;;
2041;SDS011;1026;51.460;7.252;2023-02-21T17:51:57;17.17;;;9.00;;